sensor_id;sensor_type;location;lat;lon;timestamp;P1;durP1;ratioP1;P2;durP2;ratioP2
5690;SDS011;2870;42.680;23.364;2022-10-03T00:00:15;7.07;;;5.40;;
5690;SDS011;2870;42.680;23.364;2022-10-03T00:05:52;8.90;;;5.90;;
5690;SDS011;2870;42.680;23.364;2022-10-03T00:08:47;8.30;;;5.37;;
5690;SDS011;2870;42.680;23.364;2022-10-03T00:11:29;7.40;;;5.70;;
5690;SDS011;2870;42.680;23.364;2022-10-03T00:14:07;7.17;;;5.53;;
5690;SDS011;2870;42.680;23.364;2022-10-03T00:16:44;13.63;;;6.30;;
5690;SDS011;2870;42.680;23.364;2022-10-03T00:19:22;9.70;;;5.90;;
5690;SDS011;2870;42.680;23.364;2022-10-03T00:22:04;6.40;;;5.27;;
5690;SDS011;2870;42.680;23.364;2022-10-03T00:24:45;9.67;;;5.40;;
5690;SDS011;2870;42.680;23.364;2022-10-03T00:27:26;8.83;;;5.47;;
5690;SDS011;2870;42.680;23.364;2022-10-03T00:30:01;7.30;;;5.43;;
5690;SDS011;2870;42.680;23.364;2022-10-03T00:32:55;15.77;;;5.80;;
5690;SDS011;2870;42.680;23.364;2022-10-03T00:35:49;8.10;;;6.03;;
5690;SDS011;2870;42.680;23.364;2022-10-03T00:38:34;9.57;;;6.97;;
5690;SDS011;2870;42.680;23.364;2022-10-03T00:41:26;13.20;;;6.20;;
5690;SDS011;2870;42.680;23.364;2022-10-03T00:47:33;7.73;;;6.90;;
5690;SDS011;2870;42.680;23.364;2022-10-03T00:53:22;13.03;;;6.80;;
5690;SDS011;2870;42.680;23.364;2022-10-03T00:56:05;11.63;;;8.00;;
5690;SDS011;2870;42.680;23.364;2022-10-03T00:58:56;19.80;;;9.10;;
5690;SDS011;2870;42.680;23.364;2022-10-03T01:01:43;11.03;;;8.10;;
5690;SDS011;2870;42.680;23.364;2022-10-03T01:04:17;12.60;;;7.97;;
5690;SDS011;2870;42.680;23.364;2022-10-03T01:07:10;10.37;;;8.37;;
5690;SDS011;2870;42.680;23.364;2022-10-03T01:10:00;14.43;;;8.40;;
5690;SDS011;2870;42.680;23.364;2022-10-03T01:12:47;12.20;;;8.60;;
5690;SDS011;2870;42.680;23.364;2022-10-03T01:15:30;10.87;;;9.00;;
5690;SDS011;2870;42.680;23.364;2022-10-03T01:18:10;10.57;;;7.63;;
5690;SDS011;2870;42.680;23.364;2022-10-03T01:20:47;9.30;;;7.60;;
5690;SDS011;2870;42.680;23.364;2022-10-03T01:26:36;12.93;;;7.70;;
5690;SDS011;2870;42.680;23.364;2022-10-03T01:29:27;13.73;;;8.47;;
5690;SDS011;2870;42.680;23.364;2022-10-03T01:32:22;13.17;;;8.30;;
5690;SDS011;2870;42.680;23.364;2022-10-03T01:34:56;11.63;;;8.03;;
5690;SDS011;2870;42.680;23.364;2022-10-03T01:37:36;11.93;;;7.90;;
5690;SDS011;2870;42.680;23.364;2022-10-03T01:40:12;17.47;;;7.37;;
5690;SDS011;2870;42.680;23.364;2022-10-03T01:42:54;8.17;;;6.00;;
5690;SDS011;2870;42.680;23.364;2022-10-03T01:45:30;11.53;;;6.67;;
5690;SDS011;2870;42.680;23.364;2022-10-03T01:48:06;7.57;;;5.97;;
5690;SDS011;2870;42.680;23.364;2022-10-03T01:50:43;10.97;;;5.83;;
5690;SDS011;2870;42.680;23.364;2022-10-03T01:53:19;10.83;;;6.77;;
5690;SDS011;2870;42.680;23.364;2022-10-03T01:55:53;9.53;;;5.77;;
5690;SDS011;2870;42.680;23.364;2022-10-03T01:58:29;11.60;;;5.83;;
5690;SDS011;2870;42.680;23.364;2022-10-03T02:03:56;8.50;;;5.90;;
5690;SDS011;2870;42.680;23.364;2022-10-03T02:06:32;8.13;;;5.70;;
5690;SDS011;2870;42.680;23.364;2022-10-03T02:09:10;9.17;;;5.17;;
5690;SDS011;2870;42.680;23.364;2022-10-03T02:11:54;8.77;;;5.23;;
5690;SDS011;2870;42.680;23.364;2022-10-03T02:14:29;6.40;;;4.83;;
5690;SDS011;2870;42.680;23.364;2022-10-03T02:17:05;7.47;;;6.03;;
5690;SDS011;2870;42.680;23.364;2022-10-03T02:19:43;8.23;;;5.07;;
5690;SDS011;2870;42.680;23.364;2022-10-03T02:22:14;7.37;;;5.33;;
5690;SDS011;2870;42.680;23.364;2022-10-03T02:24:56;8.43;;;5.50;;
5690;SDS011;2870;42.680;23.364;2022-10-03T02:27:47;6.30;;;5.43;;
5690;SDS011;2870;42.680;23.364;2022-10-03T02:30:33;7.50;;;5.63;;
5690;SDS011;2870;42.680;23.364;2022-10-03T02:33:22;6.50;;;5.30;;
5690;SDS011;2870;42.680;23.364;2022-10-03T02:36:09;10.27;;;5.40;;
5690;SDS011;2870;42.680;23.364;2022-10-03T02:39:10;7.27;;;5.70;;
5690;SDS011;2870;42.680;23.364;2022-10-03T02:45:45;13.10;;;8.37;;
5690;SDS011;2870;42.680;23.364;2022-10-03T02:51:37;12.33;;;8.30;;
5690;SDS011;2870;42.680;23.364;2022-10-03T02:54:25;10.63;;;8.00;;
5690;SDS011;2870;42.680;23.364;2022-10-03T03:00:34;12.53;;;8.23;;
5690;SDS011;2870;42.680;23.364;2022-10-03T03:03:25;12.30;;;8.07;;
5690;SDS011;2870;42.680;23.364;2022-10-03T03:06:19;12.00;;;7.70;;
5690;SDS011;2870;42.680;23.364;2022-10-03T03:19:04;18.53;;;8.03;;
5690;SDS011;2870;42.680;23.364;2022-10-03T03:21:40;13.80;;;7.37;;
5690;SDS011;2870;42.680;23.364;2022-10-03T03:24:20;12.40;;;7.20;;
5690;SDS011;2870;42.680;23.364;2022-10-03T03:27:21;9.93;;;7.70;;
5690;SDS011;2870;42.680;23.364;2022-10-03T03:29:59;9.60;;;7.20;;
5690;SDS011;2870;42.680;23.364;2022-10-03T03:32:35;20.13;;;8.70;;
5690;SDS011;2870;42.680;23.364;2022-10-03T03:35:13;14.20;;;8.40;;
5690;SDS011;2870;42.680;23.364;2022-10-03T03:37:50;8.23;;;7.10;;
5690;SDS011;2870;42.680;23.364;2022-10-03T03:40:28;11.43;;;8.47;;
5690;SDS011;2870;42.680;23.364;2022-10-03T03:43:11;14.23;;;7.60;;
5690;SDS011;2870;42.680;23.364;2022-10-03T03:46:04;14.70;;;8.17;;
5690;SDS011;2870;42.680;23.364;2022-10-03T03:48:53;11.07;;;8.50;;
5690;SDS011;2870;42.680;23.364;2022-10-03T03:51:31;13.10;;;9.03;;
5690;SDS011;2870;42.680;23.364;2022-10-03T03:54:21;13.40;;;8.40;;
5690;SDS011;2870;42.680;23.364;2022-10-03T03:57:13;11.07;;;8.07;;
5690;SDS011;2870;42.680;23.364;2022-10-03T04:02:49;12.77;;;8.50;;
5690;SDS011;2870;42.680;23.364;2022-10-03T04:05:31;12.17;;;8.50;;
5690;SDS011;2870;42.680;23.364;2022-10-03T04:11:11;11.20;;;7.50;;
5690;SDS011;2870;42.680;23.364;2022-10-03T04:13:53;11.90;;;8.27;;
5690;SDS011;2870;42.680;23.364;2022-10-03T04:16:41;24.57;;;9.17;;
5690;SDS011;2870;42.680;23.364;2022-10-03T04:19:41;11.87;;;8.47;;
5690;SDS011;2870;42.680;23.364;2022-10-03T04:22:23;11.20;;;8.10;;
5690;SDS011;2870;42.680;23.364;2022-10-03T04:25:08;11.83;;;9.33;;
5690;SDS011;2870;42.680;23.364;2022-10-03T04:27:49;16.33;;;8.87;;
5690;SDS011;2870;42.680;23.364;2022-10-03T04:30:29;13.73;;;8.87;;
5690;SDS011;2870;42.680;23.364;2022-10-03T04:33:13;26.40;;;11.73;;
5690;SDS011;2870;42.680;23.364;2022-10-03T04:36:13;16.67;;;10.90;;
5690;SDS011;2870;42.680;23.364;2022-10-03T04:38:52;13.27;;;8.37;;
5690;SDS011;2870;42.680;23.364;2022-10-03T04:41:28;12.77;;;9.37;;
5690;SDS011;2870;42.680;23.364;2022-10-03T04:44:08;12.97;;;8.30;;
5690;SDS011;2870;42.680;23.364;2022-10-03T04:46:47;12.87;;;8.30;;
5690;SDS011;2870;42.680;23.364;2022-10-03T04:49:22;14.00;;;9.27;;
5690;SDS011;2870;42.680;23.364;2022-10-03T04:51:56;16.43;;;9.63;;
5690;SDS011;2870;42.680;23.364;2022-10-03T04:54:27;15.90;;;9.20;;
5690;SDS011;2870;42.680;23.364;2022-10-03T04:57:09;16.50;;;10.10;;
5690;SDS011;2870;42.680;23.364;2022-10-03T04:59:47;19.97;;;9.63;;
5690;SDS011;2870;42.680;23.364;2022-10-03T05:02:22;30.67;;;8.93;;
5690;SDS011;2870;42.680;23.364;2022-10-03T05:07:52;20.20;;;9.77;;
5690;SDS011;2870;42.680;23.364;2022-10-03T05:10:29;16.10;;;10.07;;
5690;SDS011;2870;42.680;23.364;2022-10-03T05:13:11;35.83;;;9.60;;
5690;SDS011;2870;42.680;23.364;2022-10-03T05:15:44;17.00;;;10.27;;
5690;SDS011;2870;42.680;23.364;2022-10-03T05:18:21;16.73;;;10.23;;
5690;SDS011;2870;42.680;23.364;2022-10-03T05:21:01;17.07;;;11.10;;
5690;SDS011;2870;42.680;23.364;2022-10-03T05:23:40;20.13;;;11.20;;
5690;SDS011;2870;42.680;23.364;2022-10-03T05:26:21;21.13;;;9.53;;
5690;SDS011;2870;42.680;23.364;2022-10-03T05:28:53;16.83;;;9.47;;
5690;SDS011;2870;42.680;23.364;2022-10-03T05:31:30;24.87;;;9.97;;
5690;SDS011;2870;42.680;23.364;2022-10-03T05:34:10;14.40;;;11.00;;
5690;SDS011;2870;42.680;23.364;2022-10-03T05:36:50;21.50;;;10.10;;
5690;SDS011;2870;42.680;23.364;2022-10-03T05:39:33;14.93;;;10.33;;
5690;SDS011;2870;42.680;23.364;2022-10-03T05:45:06;28.30;;;12.80;;
5690;SDS011;2870;42.680;23.364;2022-10-03T05:47:49;20.30;;;12.50;;
5690;SDS011;2870;42.680;23.364;2022-10-03T05:56:34;17.63;;;11.33;;
5690;SDS011;2870;42.680;23.364;2022-10-03T06:05:23;15.30;;;10.60;;
5690;SDS011;2870;42.680;23.364;2022-10-03T06:08:02;18.53;;;11.03;;
5690;SDS011;2870;42.680;23.364;2022-10-03T06:10:53;19.83;;;11.73;;
5690;SDS011;2870;42.680;23.364;2022-10-03T06:13:36;25.03;;;13.77;;
5690;SDS011;2870;42.680;23.364;2022-10-03T06:16:23;27.27;;;15.40;;
5690;SDS011;2870;42.680;23.364;2022-10-03T06:19:10;30.70;;;17.80;;
5690;SDS011;2870;42.680;23.364;2022-10-03T06:25:00;32.20;;;19.47;;
5690;SDS011;2870;42.680;23.364;2022-10-03T06:27:54;38.53;;;22.40;;
5690;SDS011;2870;42.680;23.364;2022-10-03T06:30:51;40.87;;;23.20;;
5690;SDS011;2870;42.680;23.364;2022-10-03T06:37:08;38.03;;;21.23;;
5690;SDS011;2870;42.680;23.364;2022-10-03T06:40:03;34.93;;;22.37;;
5690;SDS011;2870;42.680;23.364;2022-10-03T06:52:30;28.73;;;17.00;;
5690;SDS011;2870;42.680;23.364;2022-10-03T06:55:17;32.53;;;16.20;;
5690;SDS011;2870;42.680;23.364;2022-10-03T06:58:06;29.93;;;16.50;;
5690;SDS011;2870;42.680;23.364;2022-10-03T07:01:12;24.57;;;13.80;;
5690;SDS011;2870;42.680;23.364;2022-10-03T07:04:20;27.70;;;12.00;;
5690;SDS011;2870;42.680;23.364;2022-10-03T07:07:08;16.27;;;11.10;;
5690;SDS011;2870;42.680;23.364;2022-10-03T07:09:57;17.33;;;11.60;;
5690;SDS011;2870;42.680;23.364;2022-10-03T07:15:52;12.23;;;8.27;;
5690;SDS011;2870;42.680;23.364;2022-10-03T07:18:52;15.23;;;8.80;;
5690;SDS011;2870;42.680;23.364;2022-10-03T07:21:59;11.80;;;8.60;;
5690;SDS011;2870;42.680;23.364;2022-10-03T07:25:13;18.37;;;8.57;;
5690;SDS011;2870;42.680;23.364;2022-10-03T07:28:06;14.37;;;9.40;;
5690;SDS011;2870;42.680;23.364;2022-10-03T07:30:53;16.73;;;10.80;;
5690;SDS011;2870;42.680;23.364;2022-10-03T07:36:33;17.00;;;12.00;;
5690;SDS011;2870;42.680;23.364;2022-10-03T07:39:52;18.83;;;14.83;;
5690;SDS011;2870;42.680;23.364;2022-10-03T07:42:50;37.00;;;23.30;;
5690;SDS011;2870;42.680;23.364;2022-10-03T07:45:46;31.80;;;20.53;;
5690;SDS011;2870;42.680;23.364;2022-10-03T07:48:47;37.40;;;21.70;;
5690;SDS011;2870;42.680;23.364;2022-10-03T07:51:22;40.10;;;18.40;;
5690;SDS011;2870;42.680;23.364;2022-10-03T08:00:07;17.40;;;11.47;;
5690;SDS011;2870;42.680;23.364;2022-10-03T08:06:13;16.63;;;10.60;;
5690;SDS011;2870;42.680;23.364;2022-10-03T08:09:03;24.30;;;11.30;;
5690;SDS011;2870;42.680;23.364;2022-10-03T08:15:08;16.47;;;11.10;;
5690;SDS011;2870;42.680;23.364;2022-10-03T08:17:53;19.10;;;10.97;;
5690;SDS011;2870;42.680;23.364;2022-10-03T08:20:39;20.03;;;10.90;;
5690;SDS011;2870;42.680;23.364;2022-10-03T08:26:21;23.43;;;11.30;;
5690;SDS011;2870;42.680;23.364;2022-10-03T08:41:33;22.27;;;9.93;;
5690;SDS011;2870;42.680;23.364;2022-10-03T08:44:42;13.40;;;8.43;;
5690;SDS011;2870;42.680;23.364;2022-10-03T08:57:12;10.90;;;5.53;;
5690;SDS011;2870;42.680;23.364;2022-10-03T09:00:14;10.03;;;4.93;;
5690;SDS011;2870;42.680;23.364;2022-10-03T09:06:10;7.60;;;5.10;;
5690;SDS011;2870;42.680;23.364;2022-10-03T09:09:16;16.67;;;9.20;;
5690;SDS011;2870;42.680;23.364;2022-10-03T09:14:54;7.40;;;5.47;;
5690;SDS011;2870;42.680;23.364;2022-10-03T09:20:51;13.10;;;6.63;;
5690;SDS011;2870;42.680;23.364;2022-10-03T09:23:47;8.27;;;6.93;;
5690;SDS011;2870;42.680;23.364;2022-10-03T09:26:47;7.50;;;5.80;;
5690;SDS011;2870;42.680;23.364;2022-10-03T09:29:37;7.83;;;5.80;;
5690;SDS011;2870;42.680;23.364;2022-10-03T09:35:29;7.20;;;5.10;;
5690;SDS011;2870;42.680;23.364;2022-10-03T09:38:24;8.00;;;5.20;;
5690;SDS011;2870;42.680;23.364;2022-10-03T09:41:25;8.37;;;5.50;;
5690;SDS011;2870;42.680;23.364;2022-10-03T09:44:14;9.10;;;6.17;;
5690;SDS011;2870;42.680;23.364;2022-10-03T09:56:10;10.40;;;5.37;;
5690;SDS011;2870;42.680;23.364;2022-10-03T09:59:15;9.57;;;5.10;;
5690;SDS011;2870;42.680;23.364;2022-10-03T10:01:52;6.53;;;5.17;;
5690;SDS011;2870;42.680;23.364;2022-10-03T10:04:45;9.27;;;5.80;;
5690;SDS011;2870;42.680;23.364;2022-10-03T10:07:38;9.87;;;5.47;;
5690;SDS011;2870;42.680;23.364;2022-10-03T10:13:31;9.40;;;4.33;;
5690;SDS011;2870;42.680;23.364;2022-10-03T10:19:34;7.17;;;4.80;;
5690;SDS011;2870;42.680;23.364;2022-10-03T10:22:29;6.10;;;4.43;;
5690;SDS011;2870;42.680;23.364;2022-10-03T10:25:37;7.63;;;3.77;;
5690;SDS011;2870;42.680;23.364;2022-10-03T10:35:05;6.40;;;4.30;;
5690;SDS011;2870;42.680;23.364;2022-10-03T10:38:10;5.87;;;4.70;;
5690;SDS011;2870;42.680;23.364;2022-10-03T10:41:06;16.20;;;4.90;;
5690;SDS011;2870;42.680;23.364;2022-10-03T10:44:04;5.60;;;4.13;;
5690;SDS011;2870;42.680;23.364;2022-10-03T10:50:23;6.30;;;4.50;;
5690;SDS011;2870;42.680;23.364;2022-10-03T10:56:27;6.47;;;4.37;;
5690;SDS011;2870;42.680;23.364;2022-10-03T10:59:38;5.50;;;4.20;;
5690;SDS011;2870;42.680;23.364;2022-10-03T11:09:05;6.80;;;4.60;;
5690;SDS011;2870;42.680;23.364;2022-10-03T11:21:48;5.63;;;5.00;;
5690;SDS011;2870;42.680;23.364;2022-10-03T11:24:48;9.10;;;5.13;;
5690;SDS011;2870;42.680;23.364;2022-10-03T11:27:52;7.43;;;5.67;;
5690;SDS011;2870;42.680;23.364;2022-10-03T11:30:54;8.57;;;6.13;;
5690;SDS011;2870;42.680;23.364;2022-10-03T11:33:50;8.10;;;5.30;;
5690;SDS011;2870;42.680;23.364;2022-10-03T11:39:39;6.53;;;5.17;;
5690;SDS011;2870;42.680;23.364;2022-10-03T11:42:12;11.13;;;5.57;;
5690;SDS011;2870;42.680;23.364;2022-10-03T11:44:50;7.33;;;5.70;;
5690;SDS011;2870;42.680;23.364;2022-10-03T11:47:34;11.80;;;6.53;;
5690;SDS011;2870;42.680;23.364;2022-10-03T11:50:27;8.77;;;7.07;;
5690;SDS011;2870;42.680;23.364;2022-10-03T11:53:11;7.23;;;5.87;;
5690;SDS011;2870;42.680;23.364;2022-10-03T11:55:48;7.63;;;6.13;;
5690;SDS011;2870;42.680;23.364;2022-10-03T11:58:25;7.70;;;6.27;;
5690;SDS011;2870;42.680;23.364;2022-10-03T12:01:01;7.90;;;6.13;;
5690;SDS011;2870;42.680;23.364;2022-10-03T12:03:49;8.83;;;6.60;;
5690;SDS011;2870;42.680;23.364;2022-10-03T12:06:26;13.57;;;6.83;;
5690;SDS011;2870;42.680;23.364;2022-10-03T12:09:31;9.00;;;6.50;;
5690;SDS011;2870;42.680;23.364;2022-10-03T12:12:09;13.00;;;7.33;;
5690;SDS011;2870;42.680;23.364;2022-10-03T12:14:41;10.23;;;6.90;;
5690;SDS011;2870;42.680;23.364;2022-10-03T12:17:11;8.83;;;6.60;;
5690;SDS011;2870;42.680;23.364;2022-10-03T12:19:44;9.30;;;7.10;;
5690;SDS011;2870;42.680;23.364;2022-10-03T12:22:25;8.73;;;6.93;;
5690;SDS011;2870;42.680;23.364;2022-10-03T12:25:03;10.80;;;6.80;;
5690;SDS011;2870;42.680;23.364;2022-10-03T12:27:42;7.10;;;6.07;;
5690;SDS011;2870;42.680;23.364;2022-10-03T12:30:16;7.93;;;6.60;;
5690;SDS011;2870;42.680;23.364;2022-10-03T12:32:48;7.43;;;6.20;;
5690;SDS011;2870;42.680;23.364;2022-10-03T12:35:31;7.30;;;5.83;;
5690;SDS011;2870;42.680;23.364;2022-10-03T12:38:12;7.90;;;6.43;;
5690;SDS011;2870;42.680;23.364;2022-10-03T12:40:50;8.73;;;6.97;;
5690;SDS011;2870;42.680;23.364;2022-10-03T12:43:32;9.10;;;5.90;;
5690;SDS011;2870;42.680;23.364;2022-10-03T12:46:12;11.07;;;6.13;;
5690;SDS011;2870;42.680;23.364;2022-10-03T12:48:45;9.80;;;6.80;;
5690;SDS011;2870;42.680;23.364;2022-10-03T12:51:18;11.97;;;6.80;;
5690;SDS011;2870;42.680;23.364;2022-10-03T12:53:54;12.07;;;6.90;;
5690;SDS011;2870;42.680;23.364;2022-10-03T12:56:34;9.73;;;7.40;;
5690;SDS011;2870;42.680;23.364;2022-10-03T12:59:12;14.13;;;7.20;;
5690;SDS011;2870;42.680;23.364;2022-10-03T13:04:47;9.00;;;7.10;;
5690;SDS011;2870;42.680;23.364;2022-10-03T13:07:31;9.13;;;7.00;;
5690;SDS011;2870;42.680;23.364;2022-10-03T13:10:12;8.57;;;7.00;;
5690;SDS011;2870;42.680;23.364;2022-10-03T13:12:51;9.83;;;6.80;;
5690;SDS011;2870;42.680;23.364;2022-10-03T13:18:32;6.53;;;5.70;;
5690;SDS011;2870;42.680;23.364;2022-10-03T13:21:31;8.67;;;7.00;;
5690;SDS011;2870;42.680;23.364;2022-10-03T13:24:12;13.67;;;7.40;;
5690;SDS011;2870;42.680;23.364;2022-10-03T13:26:52;10.77;;;7.13;;
5690;SDS011;2870;42.680;23.364;2022-10-03T13:29:30;6.77;;;5.80;;
5690;SDS011;2870;42.680;23.364;2022-10-03T13:32:14;8.77;;;6.10;;
5690;SDS011;2870;42.680;23.364;2022-10-03T13:34:56;7.83;;;5.60;;
5690;SDS011;2870;42.680;23.364;2022-10-03T13:37:48;7.93;;;5.90;;
5690;SDS011;2870;42.680;23.364;2022-10-03T13:40:31;8.17;;;5.87;;
5690;SDS011;2870;42.680;23.364;2022-10-03T13:43:02;6.70;;;5.63;;
5690;SDS011;2870;42.680;23.364;2022-10-03T13:45:39;7.17;;;5.70;;
5690;SDS011;2870;42.680;23.364;2022-10-03T13:48:10;6.80;;;5.87;;
5690;SDS011;2870;42.680;23.364;2022-10-03T13:50:42;7.73;;;5.43;;
5690;SDS011;2870;42.680;23.364;2022-10-03T13:53:19;6.30;;;5.10;;
5690;SDS011;2870;42.680;23.364;2022-10-03T13:55:53;10.00;;;5.70;;
5690;SDS011;2870;42.680;23.364;2022-10-03T13:58:37;11.37;;;6.30;;
5690;SDS011;2870;42.680;23.364;2022-10-03T14:07:14;9.27;;;6.53;;
5690;SDS011;2870;42.680;23.364;2022-10-03T14:10:02;9.73;;;5.90;;
5690;SDS011;2870;42.680;23.364;2022-10-03T14:12:53;12.73;;;9.67;;
5690;SDS011;2870;42.680;23.364;2022-10-03T14:15:38;8.03;;;5.93;;
5690;SDS011;2870;42.680;23.364;2022-10-03T14:18:17;7.97;;;6.00;;
5690;SDS011;2870;42.680;23.364;2022-10-03T14:24:11;13.10;;;5.80;;
5690;SDS011;2870;42.680;23.364;2022-10-03T14:26:46;7.17;;;5.07;;
5690;SDS011;2870;42.680;23.364;2022-10-03T14:29:22;7.17;;;5.43;;
5690;SDS011;2870;42.680;23.364;2022-10-03T14:31:57;8.67;;;5.70;;
5690;SDS011;2870;42.680;23.364;2022-10-03T14:34:37;7.70;;;5.33;;
5690;SDS011;2870;42.680;23.364;2022-10-03T14:37:14;12.90;;;5.33;;
5690;SDS011;2870;42.680;23.364;2022-10-03T14:39:52;6.77;;;4.50;;
5690;SDS011;2870;42.680;23.364;2022-10-03T14:45:22;8.87;;;5.90;;
5690;SDS011;2870;42.680;23.364;2022-10-03T14:47:55;8.87;;;6.07;;
5690;SDS011;2870;42.680;23.364;2022-10-03T14:50:27;7.23;;;6.10;;
5690;SDS011;2870;42.680;23.364;2022-10-03T14:52:56;6.80;;;5.13;;
5690;SDS011;2870;42.680;23.364;2022-10-03T14:55:29;6.80;;;5.50;;
5690;SDS011;2870;42.680;23.364;2022-10-03T14:57:59;7.60;;;6.03;;
5690;SDS011;2870;42.680;23.364;2022-10-03T15:00:36;9.60;;;6.13;;
5690;SDS011;2870;42.680;23.364;2022-10-03T15:03:26;10.87;;;6.63;;
5690;SDS011;2870;42.680;23.364;2022-10-03T15:06:00;8.80;;;6.30;;
5690;SDS011;2870;42.680;23.364;2022-10-03T15:08:43;13.20;;;6.40;;
5690;SDS011;2870;42.680;23.364;2022-10-03T15:11:13;9.30;;;5.83;;
5690;SDS011;2870;42.680;23.364;2022-10-03T15:13:42;11.77;;;7.73;;
5690;SDS011;2870;42.680;23.364;2022-10-03T15:16:13;8.73;;;6.03;;
5690;SDS011;2870;42.680;23.364;2022-10-03T15:18:48;9.03;;;6.17;;
5690;SDS011;2870;42.680;23.364;2022-10-03T15:21:19;9.13;;;6.40;;
5690;SDS011;2870;42.680;23.364;2022-10-03T15:23:48;11.60;;;6.73;;
5690;SDS011;2870;42.680;23.364;2022-10-03T15:26:20;8.97;;;7.00;;
5690;SDS011;2870;42.680;23.364;2022-10-03T15:28:49;8.87;;;5.63;;
5690;SDS011;2870;42.680;23.364;2022-10-03T15:31:21;8.77;;;5.83;;
5690;SDS011;2870;42.680;23.364;2022-10-03T15:33:57;11.40;;;5.80;;
5690;SDS011;2870;42.680;23.364;2022-10-03T15:36:29;6.97;;;5.17;;
5690;SDS011;2870;42.680;23.364;2022-10-03T15:39:03;8.00;;;6.30;;
5690;SDS011;2870;42.680;23.364;2022-10-03T15:41:46;14.23;;;6.20;;
5690;SDS011;2870;42.680;23.364;2022-10-03T15:44:17;7.50;;;6.33;;
5690;SDS011;2870;42.680;23.364;2022-10-03T15:46:48;8.23;;;6.10;;
5690;SDS011;2870;42.680;23.364;2022-10-03T15:49:18;7.33;;;5.80;;
5690;SDS011;2870;42.680;23.364;2022-10-03T15:51:52;7.77;;;5.80;;
5690;SDS011;2870;42.680;23.364;2022-10-03T15:54:22;18.40;;;7.27;;
5690;SDS011;2870;42.680;23.364;2022-10-03T15:56:52;9.13;;;6.40;;
5690;SDS011;2870;42.680;23.364;2022-10-03T15:59:24;9.00;;;6.07;;
5690;SDS011;2870;42.680;23.364;2022-10-03T16:01:57;12.20;;;5.93;;
5690;SDS011;2870;42.680;23.364;2022-10-03T16:04:28;7.80;;;5.83;;
5690;SDS011;2870;42.680;23.364;2022-10-03T16:07:01;7.93;;;5.87;;
5690;SDS011;2870;42.680;23.364;2022-10-03T16:09:39;8.60;;;6.13;;
5690;SDS011;2870;42.680;23.364;2022-10-03T16:15:13;8.70;;;5.67;;
5690;SDS011;2870;42.680;23.364;2022-10-03T16:17:46;6.60;;;5.37;;
5690;SDS011;2870;42.680;23.364;2022-10-03T16:20:17;6.80;;;5.63;;
5690;SDS011;2870;42.680;23.364;2022-10-03T16:22:50;6.77;;;5.70;;
5690;SDS011;2870;42.680;23.364;2022-10-03T16:25:20;7.57;;;5.43;;
5690;SDS011;2870;42.680;23.364;2022-10-03T16:27:51;6.80;;;5.30;;
5690;SDS011;2870;42.680;23.364;2022-10-03T16:30:22;7.40;;;4.80;;
5690;SDS011;2870;42.680;23.364;2022-10-03T16:32:54;7.90;;;5.57;;
5690;SDS011;2870;42.680;23.364;2022-10-03T16:35:30;9.10;;;6.70;;
5690;SDS011;2870;42.680;23.364;2022-10-03T16:38:02;11.43;;;5.90;;
5690;SDS011;2870;42.680;23.364;2022-10-03T16:40:32;12.90;;;5.70;;
5690;SDS011;2870;42.680;23.364;2022-10-03T16:43:02;8.60;;;5.93;;
5690;SDS011;2870;42.680;23.364;2022-10-03T16:45:34;9.00;;;5.03;;
5690;SDS011;2870;42.680;23.364;2022-10-03T16:48:09;10.00;;;5.00;;
5690;SDS011;2870;42.680;23.364;2022-10-03T16:50:57;6.67;;;5.47;;
5690;SDS011;2870;42.680;23.364;2022-10-03T16:53:27;7.10;;;5.87;;
5690;SDS011;2870;42.680;23.364;2022-10-03T16:55:56;8.50;;;6.23;;
5690;SDS011;2870;42.680;23.364;2022-10-03T16:58:31;14.00;;;7.97;;
5690;SDS011;2870;42.680;23.364;2022-10-03T17:01:03;13.43;;;6.40;;
5690;SDS011;2870;42.680;23.364;2022-10-03T17:03:34;8.50;;;5.80;;
5690;SDS011;2870;42.680;23.364;2022-10-03T17:06:04;8.47;;;5.80;;
5690;SDS011;2870;42.680;23.364;2022-10-03T17:08:41;7.43;;;5.70;;
5690;SDS011;2870;42.680;23.364;2022-10-03T17:11:11;7.87;;;6.03;;
5690;SDS011;2870;42.680;23.364;2022-10-03T17:13:45;8.80;;;5.80;;
5690;SDS011;2870;42.680;23.364;2022-10-03T17:16:15;9.13;;;5.50;;
5690;SDS011;2870;42.680;23.364;2022-10-03T17:18:55;8.50;;;5.70;;
5690;SDS011;2870;42.680;23.364;2022-10-03T17:21:32;6.23;;;5.30;;
5690;SDS011;2870;42.680;23.364;2022-10-03T17:24:08;7.10;;;5.40;;
5690;SDS011;2870;42.680;23.364;2022-10-03T17:26:39;6.13;;;4.93;;
5690;SDS011;2870;42.680;23.364;2022-10-03T17:29:09;8.53;;;5.80;;
5690;SDS011;2870;42.680;23.364;2022-10-03T17:31:43;7.53;;;5.60;;
5690;SDS011;2870;42.680;23.364;2022-10-03T17:34:14;6.73;;;5.47;;
5690;SDS011;2870;42.680;23.364;2022-10-03T17:36:53;9.87;;;5.40;;
5690;SDS011;2870;42.680;23.364;2022-10-03T17:39:34;12.63;;;6.10;;
5690;SDS011;2870;42.680;23.364;2022-10-03T17:42:07;10.73;;;5.60;;
5690;SDS011;2870;42.680;23.364;2022-10-03T17:44:51;10.17;;;6.70;;
5690;SDS011;2870;42.680;23.364;2022-10-03T17:47:25;8.87;;;5.90;;
5690;SDS011;2870;42.680;23.364;2022-10-03T17:49:59;7.87;;;5.60;;
5690;SDS011;2870;42.680;23.364;2022-10-03T17:52:31;7.97;;;6.40;;
5690;SDS011;2870;42.680;23.364;2022-10-03T17:55:03;10.40;;;6.40;;
5690;SDS011;2870;42.680;23.364;2022-10-03T17:57:32;9.43;;;6.80;;
5690;SDS011;2870;42.680;23.364;2022-10-03T18:00:04;10.93;;;6.40;;
5690;SDS011;2870;42.680;23.364;2022-10-03T18:02:34;8.60;;;6.70;;
5690;SDS011;2870;42.680;23.364;2022-10-03T18:05:10;10.03;;;7.50;;
5690;SDS011;2870;42.680;23.364;2022-10-03T18:07:41;8.57;;;5.97;;
5690;SDS011;2870;42.680;23.364;2022-10-03T18:10:21;10.43;;;6.40;;
5690;SDS011;2870;42.680;23.364;2022-10-03T18:12:52;8.50;;;5.67;;
5690;SDS011;2870;42.680;23.364;2022-10-03T18:21:41;9.20;;;6.40;;
5690;SDS011;2870;42.680;23.364;2022-10-03T18:24:23;10.90;;;6.90;;
5690;SDS011;2870;42.680;23.364;2022-10-03T18:27:07;9.00;;;6.30;;
5690;SDS011;2870;42.680;23.364;2022-10-03T18:29:54;9.03;;;6.30;;
5690;SDS011;2870;42.680;23.364;2022-10-03T18:32:24;7.20;;;5.93;;
5690;SDS011;2870;42.680;23.364;2022-10-03T18:35:01;8.10;;;5.77;;
5690;SDS011;2870;42.680;23.364;2022-10-03T18:40:40;15.93;;;7.80;;
5690;SDS011;2870;42.680;23.364;2022-10-03T18:43:20;8.50;;;5.70;;
5690;SDS011;2870;42.680;23.364;2022-10-03T18:46:09;7.83;;;5.47;;
5690;SDS011;2870;42.680;23.364;2022-10-03T18:48:42;11.00;;;5.73;;
5690;SDS011;2870;42.680;23.364;2022-10-03T18:51:24;7.70;;;5.50;;
5690;SDS011;2870;42.680;23.364;2022-10-03T18:53:58;7.13;;;5.20;;
5690;SDS011;2870;42.680;23.364;2022-10-03T18:56:30;9.40;;;5.27;;
5690;SDS011;2870;42.680;23.364;2022-10-03T18:59:10;7.00;;;4.70;;
5690;SDS011;2870;42.680;23.364;2022-10-03T19:01:46;11.90;;;5.90;;
5690;SDS011;2870;42.680;23.364;2022-10-03T19:04:18;7.10;;;4.87;;
5690;SDS011;2870;42.680;23.364;2022-10-03T19:06:55;9.13;;;4.90;;
5690;SDS011;2870;42.680;23.364;2022-10-03T19:09:24;8.60;;;4.33;;
5690;SDS011;2870;42.680;23.364;2022-10-03T19:11:55;16.43;;;4.40;;
5690;SDS011;2870;42.680;23.364;2022-10-03T19:14:33;7.23;;;4.63;;
5690;SDS011;2870;42.680;23.364;2022-10-03T19:17:13;9.37;;;4.93;;
5690;SDS011;2870;42.680;23.364;2022-10-03T19:19:49;6.93;;;4.50;;
5690;SDS011;2870;42.680;23.364;2022-10-03T19:22:24;8.50;;;4.63;;
5690;SDS011;2870;42.680;23.364;2022-10-03T19:24:56;5.87;;;4.40;;
5690;SDS011;2870;42.680;23.364;2022-10-03T19:27:38;11.90;;;5.20;;
5690;SDS011;2870;42.680;23.364;2022-10-03T19:30:09;12.00;;;4.80;;
5690;SDS011;2870;42.680;23.364;2022-10-03T19:32:44;6.90;;;4.90;;
5690;SDS011;2870;42.680;23.364;2022-10-03T19:35:15;11.02;;;2.90;;
5690;SDS011;2870;42.680;23.364;2022-10-03T19:37:46;6.83;;;4.47;;
5690;SDS011;2870;42.680;23.364;2022-10-03T19:40:21;8.43;;;5.23;;
5690;SDS011;2870;42.680;23.364;2022-10-03T19:49:12;8.50;;;4.50;;
5690;SDS011;2870;42.680;23.364;2022-10-03T19:51:46;6.70;;;5.27;;
5690;SDS011;2870;42.680;23.364;2022-10-03T19:54:25;6.83;;;4.40;;